JST972 YMML-YPPH
Flight info
| Callsign | JST972 |
|---|---|
| Flight time | 3h 24m |
| Altitude | 34000 |
| Route | CRENA Q158 KABLI |
| Aircraft | A321/M-SDE3FGHIRWY/LB1 |
Departure
| Time | 2026-05-06 20:43 |
|---|---|
| Airport | Melbourne Airport (YMML) |
Arrival
| Time | 2026-05-07 00:08 |
|---|---|
| Airport | Perth International Airport (YPPH) |
| Time | Latitude | Longitude | Altitude | Speed | Heading |
|---|---|---|---|---|---|
| 2026-05-06 20:00 | -37.67631 | 144.84800 | 377 ft | 0 kts | 352° |
| 2026-05-06 20:27 | -37.67641 | 144.84802 | 376 ft | 3 kts | 352° |
| 2026-05-06 20:27 | -37.67662 | 144.84806 | 375 ft | 3 kts | 351° |
| 2026-05-06 20:27 | -37.67682 | 144.84810 | 374 ft | 3 kts | 347° |
| 2026-05-06 20:27 | -37.67702 | 144.84817 | 373 ft | 3 kts | 335° |
| 2026-05-06 20:28 | -37.67717 | 144.84829 | 373 ft | 3 kts | 298° |
| 2026-05-06 20:28 | -37.67721 | 144.84839 | 373 ft | 3 kts | 262° |
| 2026-05-06 20:28 | -37.67724 | 144.84813 | 372 ft | 3 kts | 262° |
| 2026-05-06 20:28 | -37.67727 | 144.84790 | 372 ft | 2 kts | 261° |
| 2026-05-06 20:29 | -37.67730 | 144.84766 | 372 ft | 3 kts | 261° |
| 2026-05-06 20:29 | -37.67733 | 144.84740 | 372 ft | 3 kts | 261° |
| 2026-05-06 20:29 | -37.67736 | 144.84715 | 371 ft | 1 kts | 261° |
| 2026-05-06 20:29 | -37.67736 | 144.84714 | 371 ft | 1 kts | 261° |
| 2026-05-06 20:34 | -37.67738 | 144.84698 | 371 ft | 4 kts | 261° |
| 2026-05-06 20:34 | -37.67744 | 144.84655 | 370 ft | 6 kts | 255° |
| 2026-05-06 20:34 | -37.67777 | 144.84605 | 369 ft | 10 kts | 212° |
| 2026-05-06 20:34 | -37.67825 | 144.84535 | 365 ft | 11 kts | 256° |
| 2026-05-06 20:35 | -37.67835 | 144.84447 | 363 ft | 8 kts | 264° |
| 2026-05-06 20:35 | -37.67816 | 144.84387 | 366 ft | 7 kts | 326° |
| 2026-05-06 20:35 | -37.67778 | 144.84377 | 368 ft | 4 kts | 350° |
| 2026-05-06 20:35 | -37.67755 | 144.84372 | 370 ft | 3 kts | 351° |
| 2026-05-06 20:36 | -37.67728 | 144.84367 | 369 ft | 5 kts | 351° |
| 2026-05-06 20:36 | -37.67690 | 144.84359 | 369 ft | 6 kts | 351° |
| 2026-05-06 20:36 | -37.67648 | 144.84351 | 371 ft | 6 kts | 351° |
| 2026-05-06 20:36 | -37.67603 | 144.84343 | 372 ft | 7 kts | 352° |
| 2026-05-06 20:37 | -37.67548 | 144.84333 | 374 ft | 9 kts | 352° |
| 2026-05-06 20:37 | -37.67482 | 144.84322 | 375 ft | 10 kts | 352° |
| 2026-05-06 20:37 | -37.67409 | 144.84308 | 377 ft | 11 kts | 351° |
| 2026-05-06 20:37 | -37.67328 | 144.84293 | 379 ft | 13 kts | 351° |
| 2026-05-06 20:38 | -37.67239 | 144.84275 | 381 ft | 13 kts | 351° |
| 2026-05-06 20:38 | -37.67151 | 144.84259 | 383 ft | 13 kts | 352° |
| 2026-05-06 20:38 | -37.67064 | 144.84243 | 384 ft | 13 kts | 352° |
| 2026-05-06 20:38 | -37.66977 | 144.84228 | 386 ft | 13 kts | 352° |
| 2026-05-06 20:39 | -37.66891 | 144.84212 | 389 ft | 12 kts | 352° |
| 2026-05-06 20:39 | -37.66809 | 144.84196 | 391 ft | 12 kts | 351° |
| 2026-05-06 20:39 | -37.66740 | 144.84183 | 391 ft | 8 kts | 351° |
| 2026-05-06 20:39 | -37.66701 | 144.84203 | 396 ft | 7 kts | 59° |
| 2026-05-06 20:40 | -37.66692 | 144.84279 | 396 ft | 9 kts | 84° |
| 2026-05-06 20:40 | -37.66683 | 144.84361 | 397 ft | 10 kts | 82° |
| 2026-05-06 20:40 | -37.66672 | 144.84453 | 398 ft | 11 kts | 81° |
| 2026-05-06 20:40 | -37.66660 | 144.84559 | 398 ft | 13 kts | 81° |
| 2026-05-06 20:41 | -37.66646 | 144.84674 | 401 ft | 13 kts | 82° |
| 2026-05-06 20:41 | -37.66620 | 144.84779 | 403 ft | 12 kts | 49° |
| 2026-05-06 20:41 | -37.66545 | 144.84798 | 405 ft | 10 kts | 351° |
| 2026-05-06 20:41 | -37.66478 | 144.84780 | 406 ft | 9 kts | 349° |
| 2026-05-06 20:42 | -37.66414 | 144.84778 | 410 ft | 9 kts | 4° |
| 2026-05-06 20:42 | -37.66348 | 144.84784 | 410 ft | 10 kts | 4° |
| 2026-05-06 20:42 | -37.66277 | 144.84780 | 413 ft | 11 kts | 340° |
| 2026-05-06 20:42 | -37.66226 | 144.84704 | 413 ft | 14 kts | 288° |
| 2026-05-06 20:43 | -37.66203 | 144.84398 | 410 ft | 72 kts | 274° |
| 2026-05-06 20:43 | -37.66150 | 144.83455 | 416 ft | 140 kts | 273° |
| 2026-05-06 20:43 | -37.66084 | 144.82149 | 1015 ft | 153 kts | 274° |
| 2026-05-06 20:43 | -37.66004 | 144.80804 | 1982 ft | 154 kts | 269° |
| 2026-05-06 20:44 | -37.65919 | 144.79456 | 2855 ft | 153 kts | 266° |
| 2026-05-06 20:44 | -37.65854 | 144.78110 | 3302 ft | 159 kts | 264° |
| 2026-05-06 20:44 | -37.65808 | 144.77149 | 3417 ft | 173 kts | 265° |
| 2026-05-06 20:44 | -37.65721 | 144.75531 | 3586 ft | 195 kts | 265° |
| 2026-05-06 20:45 | -37.65619 | 144.73717 | 3751 ft | 217 kts | 266° |
| 2026-05-06 20:45 | -37.65501 | 144.71725 | 4075 ft | 235 kts | 267° |
| 2026-05-06 20:45 | -37.65370 | 144.69649 | 4749 ft | 240 kts | 266° |
| 2026-05-06 20:45 | -37.65231 | 144.67530 | 5440 ft | 244 kts | 266° |
| 2026-05-06 20:46 | -37.65087 | 144.65380 | 6140 ft | 247 kts | 266° |
| 2026-05-06 20:46 | -37.64943 | 144.63200 | 6831 ft | 251 kts | 266° |
| 2026-05-06 20:46 | -37.64801 | 144.60992 | 7507 ft | 254 kts | 266° |
| 2026-05-06 20:46 | -37.64660 | 144.58781 | 8180 ft | 257 kts | 266° |
| 2026-05-06 20:47 | -37.64516 | 144.56517 | 8874 ft | 260 kts | 267° |
| 2026-05-06 20:47 | -37.64369 | 144.54230 | 9561 ft | 263 kts | 268° |
| 2026-05-06 20:47 | -37.64218 | 144.51914 | 10227 ft | 267 kts | 268° |
| 2026-05-06 20:47 | -37.64066 | 144.49505 | 10472 ft | 286 kts | 268° |
| 2026-05-06 20:48 | -37.63910 | 144.46913 | 10603 ft | 307 kts | 268° |
| 2026-05-06 20:48 | -37.63742 | 144.44154 | 10865 ft | 322 kts | 268° |
| 2026-05-06 20:48 | -37.63558 | 144.41303 | 11404 ft | 328 kts | 269° |
| 2026-05-06 20:48 | -37.63366 | 144.38419 | 11990 ft | 331 kts | 269° |
| 2026-05-06 20:49 | -37.63168 | 144.35509 | 12595 ft | 335 kts | 269° |
| 2026-05-06 20:49 | -37.62967 | 144.32572 | 13201 ft | 338 kts | 269° |
| 2026-05-06 20:49 | -37.62765 | 144.29598 | 13807 ft | 342 kts | 269° |
| 2026-05-06 20:49 | -37.62564 | 144.26590 | 14368 ft | 345 kts | 269° |
| 2026-05-06 20:50 | -37.62360 | 144.23560 | 14905 ft | 348 kts | 267° |
| 2026-05-06 20:50 | -37.62157 | 144.20517 | 15512 ft | 348 kts | 266° |
| 2026-05-06 20:50 | -37.61952 | 144.17459 | 16085 ft | 350 kts | 265° |
| 2026-05-06 20:50 | -37.61749 | 144.14424 | 16665 ft | 353 kts | 265° |
| 2026-05-06 20:51 | -37.61542 | 144.11328 | 17234 ft | 355 kts | 264° |
| 2026-05-06 20:51 | -37.61335 | 144.08214 | 17799 ft | 357 kts | 264° |
| 2026-05-06 20:51 | -37.61125 | 144.05084 | 18366 ft | 360 kts | 263° |
| 2026-05-06 20:51 | -37.60912 | 144.01929 | 18861 ft | 362 kts | 263° |
| 2026-05-06 20:52 | -37.60697 | 143.98756 | 19302 ft | 365 kts | 262° |
| 2026-05-06 20:52 | -37.60481 | 143.95548 | 19729 ft | 368 kts | 262° |
| 2026-05-06 20:52 | -37.60259 | 143.92309 | 20163 ft | 372 kts | 262° |
| 2026-05-06 20:52 | -37.60033 | 143.89081 | 20590 ft | 375 kts | 262° |
| 2026-05-06 20:53 | -37.59801 | 143.85782 | 21019 ft | 379 kts | 261° |
| 2026-05-06 20:53 | -37.59569 | 143.82441 | 21386 ft | 384 kts | 261° |
| 2026-05-06 20:53 | -37.59337 | 143.79072 | 21786 ft | 387 kts | 261° |
| 2026-05-06 20:53 | -37.59099 | 143.75672 | 22187 ft | 391 kts | 260° |
| 2026-05-06 20:54 | -37.58857 | 143.72250 | 22531 ft | 393 kts | 260° |
| 2026-05-06 20:54 | -37.58613 | 143.68850 | 22924 ft | 395 kts | 260° |
| 2026-05-06 20:54 | -37.58364 | 143.65382 | 23289 ft | 398 kts | 260° |
| 2026-05-06 20:54 | -37.58113 | 143.61884 | 23643 ft | 401 kts | 259° |
| 2026-05-06 20:55 | -37.57861 | 143.58361 | 23974 ft | 404 kts | 259° |
| 2026-05-06 20:55 | -37.57609 | 143.54824 | 24249 ft | 407 kts | 259° |
| 2026-05-06 20:55 | -37.57352 | 143.51251 | 24546 ft | 410 kts | 260° |
| 2026-05-06 20:55 | -37.57089 | 143.47661 | 24780 ft | 411 kts | 261° |
| 2026-05-06 20:56 | -37.56824 | 143.44066 | 25136 ft | 412 kts | 261° |
| 2026-05-06 20:56 | -37.56556 | 143.40458 | 25440 ft | 415 kts | 261° |
| 2026-05-06 20:56 | -37.56286 | 143.36871 | 25729 ft | 417 kts | 261° |
| 2026-05-06 20:56 | -37.56014 | 143.33224 | 26015 ft | 419 kts | 261° |
| 2026-05-06 20:57 | -37.55744 | 143.29552 | 26302 ft | 422 kts | 261° |
| 2026-05-06 20:57 | -37.55473 | 143.25861 | 26590 ft | 424 kts | 261° |
| 2026-05-06 20:57 | -37.55198 | 143.22150 | 26807 ft | 426 kts | 262° |
| 2026-05-06 20:57 | -37.54915 | 143.18425 | 27156 ft | 428 kts | 262° |
| 2026-05-06 20:58 | -37.54628 | 143.14680 | 27382 ft | 431 kts | 262° |
| 2026-05-06 20:58 | -37.54338 | 143.10900 | 27633 ft | 434 kts | 262° |
| 2026-05-06 20:58 | -37.54047 | 143.07100 | 27888 ft | 436 kts | 262° |
| 2026-05-06 20:58 | -37.53759 | 143.03320 | 28137 ft | 439 kts | 262° |
| 2026-05-06 20:59 | -37.53462 | 142.99437 | 28332 ft | 441 kts | 263° |
| 2026-05-06 20:59 | -37.53166 | 142.95585 | 28616 ft | 442 kts | 263° |
| 2026-05-06 20:59 | -37.52870 | 142.91769 | 28866 ft | 444 kts | 263° |
| 2026-05-06 20:59 | -37.52568 | 142.87889 | 29109 ft | 447 kts | 263° |
| 2026-05-06 21:00 | -37.52261 | 142.83980 | 29331 ft | 449 kts | 263° |
| 2026-05-06 21:00 | -37.51952 | 142.80059 | 29597 ft | 451 kts | 263° |
| 2026-05-06 21:00 | -37.51639 | 142.76108 | 29774 ft | 454 kts | 263° |
| 2026-05-06 21:00 | -37.51323 | 142.72147 | 30083 ft | 454 kts | 264° |
| 2026-05-06 21:01 | -37.51006 | 142.68203 | 30475 ft | 452 kts | 264° |
| 2026-05-06 21:01 | -37.50686 | 142.64260 | 30813 ft | 451 kts | 264° |
| 2026-05-06 21:01 | -37.50365 | 142.60341 | 31159 ft | 449 kts | 264° |
| 2026-05-06 21:01 | -37.50047 | 142.56441 | 31518 ft | 447 kts | 264° |
| 2026-05-06 21:02 | -37.49730 | 142.52557 | 31890 ft | 445 kts | 264° |
| 2026-05-06 21:02 | -37.49413 | 142.48690 | 32169 ft | 443 kts | 265° |
| 2026-05-06 21:02 | -37.49102 | 142.44867 | 32499 ft | 442 kts | 265° |
| 2026-05-06 21:02 | -37.48792 | 142.41022 | 32831 ft | 440 kts | 265° |
| 2026-05-06 21:03 | -37.48483 | 142.37186 | 33136 ft | 439 kts | 265° |
| 2026-05-06 21:03 | -37.48172 | 142.33364 | 33449 ft | 438 kts | 265° |
| 2026-05-06 21:03 | -37.47856 | 142.29559 | 33770 ft | 436 kts | 265° |
| 2026-05-06 21:03 | -37.47537 | 142.25762 | 34030 ft | 435 kts | 265° |
| 2026-05-06 21:04 | -37.47218 | 142.21972 | 34258 ft | 435 kts | 265° |
| 2026-05-06 21:04 | -37.46576 | 142.14413 | 34315 ft | 433 kts | 265° |
| 2026-05-06 21:05 | -37.45946 | 142.06930 | 34316 ft | 432 kts | 265° |
| 2026-05-06 21:05 | -37.45307 | 141.99399 | 34322 ft | 433 kts | 265° |
| 2026-05-06 21:06 | -37.44663 | 141.91860 | 34318 ft | 433 kts | 265° |
| 2026-05-06 21:06 | -37.44012 | 141.84318 | 34331 ft | 434 kts | 265° |
| 2026-05-06 21:07 | -37.43350 | 141.76762 | 34291 ft | 434 kts | 266° |
| 2026-05-06 21:07 | -37.42678 | 141.69196 | 34305 ft | 435 kts | 266° |
| 2026-05-06 21:08 | -37.42003 | 141.61637 | 34315 ft | 435 kts | 266° |
| 2026-05-06 21:08 | -37.41335 | 141.54112 | 34322 ft | 435 kts | 266° |
| 2026-05-06 21:09 | -37.40654 | 141.46544 | 34329 ft | 435 kts | 266° |
| 2026-05-06 21:09 | -37.39970 | 141.38966 | 34331 ft | 435 kts | 266° |
| 2026-05-06 21:10 | -37.39285 | 141.31401 | 34298 ft | 435 kts | 266° |
| 2026-05-06 21:10 | -37.38590 | 141.23833 | 34334 ft | 436 kts | 266° |
| 2026-05-06 21:11 | -37.37879 | 141.16256 | 34339 ft | 436 kts | 266° |
| 2026-05-06 21:11 | -37.37170 | 141.08715 | 34295 ft | 436 kts | 267° |
| 2026-05-06 21:12 | -37.36465 | 141.01140 | 34309 ft | 437 kts | 267° |
| 2026-05-06 21:12 | -37.35747 | 140.93547 | 34328 ft | 437 kts | 267° |
| 2026-05-06 21:13 | -37.35022 | 140.85945 | 34302 ft | 437 kts | 267° |
| 2026-05-06 21:13 | -37.34300 | 140.78389 | 34315 ft | 438 kts | 268° |
| 2026-05-06 21:14 | -37.33566 | 140.70785 | 34327 ft | 438 kts | 268° |
| 2026-05-06 21:14 | -37.32825 | 140.63170 | 34316 ft | 439 kts | 268° |
| 2026-05-06 21:15 | -37.32083 | 140.55562 | 34339 ft | 439 kts | 268° |
| 2026-05-06 21:15 | -37.31340 | 140.47942 | 34357 ft | 439 kts | 268° |
| 2026-05-06 21:16 | -37.30591 | 140.40379 | 34332 ft | 439 kts | 268° |
| 2026-05-06 21:16 | -37.29824 | 140.32755 | 34341 ft | 440 kts | 268° |
| 2026-05-06 21:17 | -37.29065 | 140.25133 | 34352 ft | 440 kts | 268° |
| 2026-05-06 21:17 | -37.28292 | 140.17495 | 34331 ft | 441 kts | 269° |
| 2026-05-06 21:18 | -37.27512 | 140.09891 | 34338 ft | 442 kts | 269° |
| 2026-05-06 21:18 | -37.26585 | 140.02228 | 34356 ft | 445 kts | 271° |
| 2026-05-06 21:19 | -37.25431 | 139.94555 | 34344 ft | 447 kts | 272° |
| 2026-05-06 21:19 | -37.24241 | 139.86888 | 34363 ft | 447 kts | 272° |
| 2026-05-06 21:20 | -37.23108 | 139.79245 | 34369 ft | 447 kts | 272° |
| 2026-05-06 21:20 | -37.21995 | 139.71564 | 34345 ft | 447 kts | 272° |
| 2026-05-06 21:21 | -37.20880 | 139.63930 | 34352 ft | 447 kts | 272° |
| 2026-05-06 21:21 | -37.19749 | 139.56261 | 34368 ft | 447 kts | 272° |
| 2026-05-06 21:22 | -37.18605 | 139.48584 | 34362 ft | 448 kts | 273° |
| 2026-05-06 21:22 | -37.17450 | 139.40891 | 34377 ft | 448 kts | 272° |
| 2026-05-06 21:23 | -37.16301 | 139.33207 | 34387 ft | 448 kts | 273° |
| 2026-05-06 21:23 | -37.15138 | 139.25525 | 34410 ft | 449 kts | 273° |
| 2026-05-06 21:24 | -37.13961 | 139.17826 | 34408 ft | 449 kts | 273° |
| 2026-05-06 21:24 | -37.12798 | 139.10186 | 34407 ft | 449 kts | 273° |
| 2026-05-06 21:25 | -37.11621 | 139.02498 | 34395 ft | 449 kts | 273° |
| 2026-05-06 21:25 | -37.10446 | 138.94812 | 34390 ft | 449 kts | 273° |
| 2026-05-06 21:26 | -37.09264 | 138.87124 | 34398 ft | 449 kts | 273° |
| 2026-05-06 21:26 | -37.08063 | 138.79420 | 34404 ft | 450 kts | 274° |
| 2026-05-06 21:27 | -37.06866 | 138.71780 | 34384 ft | 450 kts | 273° |
| 2026-05-06 21:27 | -37.05667 | 138.64098 | 34404 ft | 450 kts | 274° |
| 2026-05-06 21:28 | -37.04463 | 138.56397 | 34401 ft | 450 kts | 274° |
| 2026-05-06 21:28 | -37.03238 | 138.48705 | 34412 ft | 451 kts | 274° |
| 2026-05-06 21:29 | -37.02016 | 138.41011 | 34397 ft | 450 kts | 274° |
| 2026-05-06 21:29 | -37.00799 | 138.33310 | 34413 ft | 451 kts | 274° |
| 2026-05-06 21:30 | -36.99578 | 138.25654 | 34413 ft | 451 kts | 274° |
| 2026-05-06 21:30 | -36.98338 | 138.17946 | 34426 ft | 452 kts | 274° |
| 2026-05-06 21:31 | -36.97301 | 138.11537 | 34416 ft | 452 kts | 275° |
| 2026-05-06 21:31 | -36.96047 | 138.03819 | 34426 ft | 452 kts | 275° |
| 2026-05-06 21:32 | -36.94583 | 137.94860 | 34436 ft | 452 kts | 275° |
| 2026-05-06 21:32 | -36.92900 | 137.84548 | 34435 ft | 453 kts | 275° |
| 2026-05-06 21:33 | -36.91645 | 137.76885 | 34422 ft | 453 kts | 275° |
| 2026-05-06 21:33 | -36.90372 | 137.69170 | 34437 ft | 453 kts | 275° |
| 2026-05-06 21:34 | -36.89092 | 137.61451 | 34441 ft | 453 kts | 275° |
| 2026-05-06 21:34 | -36.87802 | 137.53736 | 34448 ft | 453 kts | 275° |
| 2026-05-06 21:35 | -36.86508 | 137.46017 | 34443 ft | 453 kts | 276° |
| 2026-05-06 21:35 | -36.85229 | 137.38351 | 34447 ft | 454 kts | 276° |
| 2026-05-06 21:36 | -36.83924 | 137.30630 | 34457 ft | 454 kts | 276° |
| 2026-05-06 21:36 | -36.82616 | 137.22920 | 34449 ft | 454 kts | 276° |
| 2026-05-06 21:37 | -36.81309 | 137.15201 | 34447 ft | 454 kts | 276° |
| 2026-05-06 21:37 | -36.79993 | 137.07551 | 34454 ft | 454 kts | 276° |
| 2026-05-06 21:38 | -36.78664 | 136.99827 | 34462 ft | 454 kts | 276° |
| 2026-05-06 21:38 | -36.77349 | 136.92116 | 34452 ft | 454 kts | 276° |
| 2026-05-06 21:39 | -36.76014 | 136.84405 | 34457 ft | 455 kts | 276° |
| 2026-05-06 21:39 | -36.74669 | 136.76687 | 34467 ft | 455 kts | 276° |
| 2026-05-06 21:40 | -36.73335 | 136.69016 | 34469 ft | 455 kts | 276° |
| 2026-05-06 21:40 | -36.71986 | 136.61295 | 34467 ft | 455 kts | 277° |
| 2026-05-06 21:41 | -36.70632 | 136.53574 | 34468 ft | 456 kts | 277° |
| 2026-05-06 21:41 | -36.69268 | 136.45856 | 34468 ft | 456 kts | 277° |
| 2026-05-06 21:42 | -36.67904 | 136.38181 | 34473 ft | 456 kts | 277° |
| 2026-05-06 21:42 | -36.66527 | 136.30462 | 34475 ft | 456 kts | 277° |
| 2026-05-06 21:43 | -36.65148 | 136.22741 | 34486 ft | 456 kts | 277° |
| 2026-05-06 21:43 | -36.63764 | 136.15018 | 34487 ft | 456 kts | 277° |
| 2026-05-06 21:44 | -36.62378 | 136.07297 | 34484 ft | 456 kts | 277° |
| 2026-05-06 21:44 | -36.61003 | 135.99629 | 34478 ft | 456 kts | 277° |
| 2026-05-06 21:45 | -36.59610 | 135.91926 | 34487 ft | 457 kts | 277° |
| 2026-05-06 21:45 | -36.58191 | 135.84205 | 34479 ft | 457 kts | 277° |
| 2026-05-06 21:46 | -36.56777 | 135.76507 | 34481 ft | 457 kts | 278° |
| 2026-05-06 21:46 | -36.55356 | 135.68793 | 34489 ft | 457 kts | 278° |
| 2026-05-06 21:47 | -36.53943 | 135.61083 | 34488 ft | 457 kts | 278° |
| 2026-05-06 21:47 | -36.52534 | 135.53421 | 34495 ft | 457 kts | 278° |
| 2026-05-06 21:48 | -36.51105 | 135.45704 | 34492 ft | 457 kts | 278° |
| 2026-05-06 21:48 | -36.49664 | 135.37994 | 34498 ft | 458 kts | 278° |
| 2026-05-06 21:49 | -36.48221 | 135.30283 | 34509 ft | 458 kts | 278° |
| 2026-05-06 21:49 | -36.46772 | 135.22581 | 34513 ft | 458 kts | 278° |
| 2026-05-06 21:50 | -36.45325 | 135.14875 | 34491 ft | 458 kts | 278° |
| 2026-05-06 21:50 | -36.43864 | 135.07169 | 34497 ft | 459 kts | 279° |
| 2026-05-06 21:51 | -36.42398 | 134.99506 | 34502 ft | 459 kts | 278° |
| 2026-05-06 21:51 | -36.41131 | 134.91753 | 34500 ft | 457 kts | 275° |
| 2026-05-06 21:52 | -36.40069 | 134.83964 | 34495 ft | 457 kts | 275° |
| 2026-05-06 21:52 | -36.38977 | 134.76183 | 34507 ft | 458 kts | 276° |
| 2026-05-06 21:53 | -36.37816 | 134.68414 | 34516 ft | 458 kts | 276° |
| 2026-05-06 21:53 | -36.36626 | 134.60634 | 34507 ft | 458 kts | 276° |
| 2026-05-06 21:54 | -36.35443 | 134.52910 | 34505 ft | 458 kts | 277° |
| 2026-05-06 21:54 | -36.34254 | 134.45128 | 34511 ft | 459 kts | 277° |
| 2026-05-06 21:55 | -36.33067 | 134.37349 | 34515 ft | 459 kts | 277° |
| 2026-05-06 21:55 | -36.31874 | 134.29554 | 34515 ft | 459 kts | 277° |
| 2026-05-06 21:56 | -36.30688 | 134.21826 | 34515 ft | 459 kts | 277° |
| 2026-05-06 21:56 | -36.29479 | 134.14044 | 34521 ft | 459 kts | 277° |
| 2026-05-06 21:57 | -36.28263 | 134.06270 | 34526 ft | 459 kts | 277° |
| 2026-05-06 21:57 | -36.27047 | 133.98488 | 34517 ft | 459 kts | 277° |
| 2026-05-06 21:58 | -36.25837 | 133.90713 | 34519 ft | 460 kts | 277° |
| 2026-05-06 21:58 | -36.24603 | 133.82936 | 34526 ft | 460 kts | 277° |
| 2026-05-06 21:59 | -36.23368 | 133.75150 | 34535 ft | 460 kts | 277° |
| 2026-05-06 21:59 | -36.22138 | 133.67371 | 34527 ft | 460 kts | 278° |
| 2026-05-06 22:00 | -36.20900 | 133.59642 | 34530 ft | 460 kts | 278° |
| 2026-05-06 22:00 | -36.19636 | 133.51848 | 34540 ft | 461 kts | 278° |
| 2026-05-06 22:01 | -36.18385 | 133.44060 | 34543 ft | 461 kts | 278° |
| 2026-05-06 22:01 | -36.17136 | 133.36309 | 34542 ft | 461 kts | 278° |
| 2026-05-06 22:02 | -36.15873 | 133.28530 | 34540 ft | 461 kts | 278° |
| 2026-05-06 22:02 | -36.14604 | 133.20745 | 34545 ft | 461 kts | 278° |
| 2026-05-06 22:03 | -36.13341 | 133.13017 | 34546 ft | 461 kts | 278° |
| 2026-05-06 22:03 | -36.12059 | 133.05248 | 34531 ft | 461 kts | 279° |
| 2026-05-06 22:04 | -36.10766 | 132.97470 | 34535 ft | 462 kts | 279° |
| 2026-05-06 22:04 | -36.09465 | 132.89678 | 34542 ft | 462 kts | 279° |
| 2026-05-06 22:05 | -36.08165 | 132.81902 | 34554 ft | 462 kts | 279° |
| 2026-05-06 22:05 | -36.06873 | 132.74163 | 34547 ft | 462 kts | 279° |
| 2026-05-06 22:06 | -36.05561 | 132.66374 | 34563 ft | 462 kts | 279° |
| 2026-05-06 22:06 | -36.04247 | 132.58603 | 34556 ft | 462 kts | 279° |
| 2026-05-06 22:07 | -36.02932 | 132.50829 | 34563 ft | 462 kts | 279° |
| 2026-05-06 22:07 | -36.01609 | 132.43053 | 34548 ft | 462 kts | 279° |
| 2026-05-06 22:08 | -36.00282 | 132.35283 | 34564 ft | 462 kts | 279° |
| 2026-05-06 22:08 | -35.98956 | 132.27508 | 34569 ft | 463 kts | 279° |
| 2026-05-06 22:09 | -35.97619 | 132.19775 | 34567 ft | 463 kts | 280° |
| 2026-05-06 22:09 | -35.96265 | 132.12009 | 34564 ft | 463 kts | 280° |
| 2026-05-06 22:10 | -35.94906 | 132.04228 | 34567 ft | 463 kts | 280° |
| 2026-05-06 22:10 | -35.93551 | 131.96453 | 34566 ft | 463 kts | 280° |
| 2026-05-06 22:11 | -35.92197 | 131.88688 | 34576 ft | 463 kts | 280° |
| 2026-05-06 22:11 | -35.90839 | 131.80969 | 34572 ft | 463 kts | 280° |
| 2026-05-06 22:12 | -35.89462 | 131.73199 | 34572 ft | 463 kts | 281° |
| 2026-05-06 22:12 | -35.88088 | 131.65440 | 34576 ft | 463 kts | 281° |
| 2026-05-06 22:13 | -35.86707 | 131.57687 | 34587 ft | 463 kts | 281° |
| 2026-05-06 22:13 | -35.85319 | 131.49923 | 34578 ft | 463 kts | 281° |
| 2026-05-06 22:14 | -35.83922 | 131.42166 | 34582 ft | 463 kts | 281° |
| 2026-05-06 22:14 | -35.82533 | 131.34453 | 34577 ft | 463 kts | 281° |
| 2026-05-06 22:15 | -35.81129 | 131.26696 | 34581 ft | 463 kts | 281° |
| 2026-05-06 22:15 | -35.79710 | 131.18942 | 34580 ft | 464 kts | 281° |
| 2026-05-06 22:16 | -35.78286 | 131.11184 | 34575 ft | 464 kts | 281° |
| 2026-05-06 22:16 | -35.76862 | 131.03418 | 34581 ft | 465 kts | 281° |
| 2026-05-06 22:17 | -35.75675 | 130.96970 | 34585 ft | 465 kts | 281° |
| 2026-05-06 22:17 | -35.74246 | 130.89194 | 34596 ft | 465 kts | 280° |
| 2026-05-06 22:18 | -35.72810 | 130.81417 | 34592 ft | 465 kts | 280° |
| 2026-05-06 22:18 | -35.71354 | 130.73650 | 34597 ft | 465 kts | 281° |
| 2026-05-06 22:19 | -35.69906 | 130.65945 | 34596 ft | 465 kts | 281° |
| 2026-05-06 22:19 | -35.68450 | 130.58189 | 34594 ft | 466 kts | 281° |
| 2026-05-06 22:20 | -35.66988 | 130.50421 | 34598 ft | 466 kts | 281° |
| 2026-05-06 22:20 | -35.65525 | 130.42656 | 34595 ft | 466 kts | 281° |
| 2026-05-06 22:21 | -35.64052 | 130.34878 | 34595 ft | 466 kts | 281° |
| 2026-05-06 22:21 | -35.62573 | 130.27115 | 34602 ft | 466 kts | 281° |
| 2026-05-06 22:22 | -35.61099 | 130.19404 | 34593 ft | 466 kts | 281° |
| 2026-05-06 22:22 | -35.59604 | 130.11634 | 34599 ft | 466 kts | 281° |
| 2026-05-06 22:23 | -35.58103 | 130.03878 | 34604 ft | 466 kts | 281° |
| 2026-05-06 22:23 | -35.56606 | 129.96128 | 34603 ft | 466 kts | 281° |
| 2026-05-06 22:24 | -35.55111 | 129.88411 | 34601 ft | 466 kts | 281° |
| 2026-05-06 22:24 | -35.53601 | 129.80662 | 34604 ft | 466 kts | 281° |
| 2026-05-06 22:25 | -35.52079 | 129.72908 | 34604 ft | 466 kts | 281° |
| 2026-05-06 22:25 | -35.50566 | 129.65205 | 34611 ft | 466 kts | 281° |
| 2026-05-06 22:26 | -35.49045 | 129.57468 | 34606 ft | 466 kts | 281° |
| 2026-05-06 22:26 | -35.47520 | 129.49741 | 34609 ft | 466 kts | 281° |
| 2026-05-06 22:27 | -35.45990 | 129.42013 | 34607 ft | 465 kts | 281° |
| 2026-05-06 22:27 | -35.44457 | 129.34293 | 34606 ft | 465 kts | 281° |
| 2026-05-06 22:28 | -35.42916 | 129.26589 | 34605 ft | 465 kts | 282° |
| 2026-05-06 22:28 | -35.41368 | 129.18893 | 34600 ft | 465 kts | 282° |
| 2026-05-06 22:29 | -35.39826 | 129.11240 | 34599 ft | 465 kts | 282° |
| 2026-05-06 22:29 | -35.38270 | 129.03555 | 34609 ft | 465 kts | 282° |
| 2026-05-06 22:30 | -35.36715 | 128.95865 | 34615 ft | 465 kts | 282° |
| 2026-05-06 22:30 | -35.35152 | 128.88179 | 34601 ft | 465 kts | 282° |
| 2026-05-06 22:31 | -35.33581 | 128.80487 | 34612 ft | 465 kts | 282° |
| 2026-05-06 22:31 | -35.32011 | 128.72798 | 34616 ft | 465 kts | 282° |
| 2026-05-06 22:32 | -35.30435 | 128.65121 | 34595 ft | 465 kts | 282° |
| 2026-05-06 22:32 | -35.28863 | 128.57475 | 34605 ft | 465 kts | 282° |
| 2026-05-06 22:33 | -35.27270 | 128.49800 | 34611 ft | 465 kts | 282° |
| 2026-05-06 22:33 | -35.25680 | 128.42127 | 34618 ft | 465 kts | 282° |
| 2026-05-06 22:34 | -35.24077 | 128.34453 | 34616 ft | 465 kts | 282° |
| 2026-05-06 22:34 | -35.22467 | 128.26788 | 34622 ft | 466 kts | 282° |
| 2026-05-06 22:35 | -35.20853 | 128.19104 | 34619 ft | 466 kts | 282° |
| 2026-05-06 22:35 | -35.19245 | 128.11415 | 34619 ft | 466 kts | 282° |
| 2026-05-06 22:36 | -35.17640 | 128.03795 | 34623 ft | 466 kts | 282° |
| 2026-05-06 22:36 | -35.16011 | 127.96123 | 34625 ft | 466 kts | 283° |
| 2026-05-06 22:37 | -35.14380 | 127.88460 | 34622 ft | 466 kts | 283° |
| 2026-05-06 22:37 | -35.12746 | 127.80789 | 34622 ft | 466 kts | 283° |
| 2026-05-06 22:38 | -35.11111 | 127.73107 | 34626 ft | 466 kts | 283° |
| 2026-05-06 22:38 | -35.09487 | 127.65490 | 34625 ft | 466 kts | 283° |
| 2026-05-06 22:39 | -35.07836 | 127.57829 | 34631 ft | 466 kts | 283° |
| 2026-05-06 22:39 | -35.06174 | 127.50182 | 34625 ft | 466 kts | 283° |
| 2026-05-06 22:40 | -35.04516 | 127.42526 | 34620 ft | 466 kts | 283° |
| 2026-05-06 22:40 | -35.02859 | 127.34866 | 34621 ft | 466 kts | 283° |
| 2026-05-06 22:41 | -35.00362 | 127.23401 | 34621 ft | 466 kts | 283° |
| 2026-05-06 22:42 | -34.98695 | 127.15801 | 34621 ft | 466 kts | 283° |
| 2026-05-06 22:42 | -34.97020 | 127.08154 | 34623 ft | 466 kts | 283° |
| 2026-05-06 22:43 | -34.95336 | 127.00507 | 34617 ft | 467 kts | 283° |
| 2026-05-06 22:43 | -34.93646 | 126.92865 | 34624 ft | 466 kts | 283° |
| 2026-05-06 22:44 | -34.91952 | 126.85222 | 34624 ft | 467 kts | 283° |
| 2026-05-06 22:44 | -34.90258 | 126.77641 | 34620 ft | 467 kts | 283° |
| 2026-05-06 22:45 | -34.88546 | 126.69998 | 34623 ft | 467 kts | 283° |
| 2026-05-06 22:45 | -34.86843 | 126.62361 | 34628 ft | 467 kts | 283° |
| 2026-05-06 22:46 | -34.85128 | 126.54731 | 34633 ft | 467 kts | 283° |
| 2026-05-06 22:46 | -34.83403 | 126.47110 | 34620 ft | 467 kts | 283° |
| 2026-05-06 22:47 | -34.81678 | 126.39492 | 34631 ft | 467 kts | 284° |
| 2026-05-06 22:47 | -34.79946 | 126.31868 | 34631 ft | 467 kts | 284° |
| 2026-05-06 22:48 | -34.78216 | 126.24248 | 34622 ft | 467 kts | 284° |
| 2026-05-06 22:48 | -34.76498 | 126.16675 | 34628 ft | 467 kts | 284° |
| 2026-05-06 22:49 | -34.74745 | 126.09049 | 34629 ft | 467 kts | 284° |
| 2026-05-06 22:49 | -34.72996 | 126.01448 | 34629 ft | 467 kts | 284° |
| 2026-05-06 22:50 | -34.71243 | 125.93836 | 34630 ft | 467 kts | 284° |
| 2026-05-06 22:50 | -34.69499 | 125.86291 | 34630 ft | 467 kts | 284° |
| 2026-05-06 22:51 | -34.67741 | 125.78697 | 34626 ft | 467 kts | 284° |
| 2026-05-06 22:51 | -34.65980 | 125.71102 | 34626 ft | 467 kts | 284° |
| 2026-05-06 22:52 | -34.64208 | 125.63510 | 34628 ft | 467 kts | 284° |
| 2026-05-06 22:52 | -34.62421 | 125.55926 | 34630 ft | 467 kts | 284° |
| 2026-05-06 22:53 | -34.60636 | 125.48346 | 34615 ft | 467 kts | 284° |
| 2026-05-06 22:53 | -34.58859 | 125.40764 | 34629 ft | 467 kts | 284° |
| 2026-05-06 22:54 | -34.57070 | 125.33196 | 34633 ft | 467 kts | 284° |
| 2026-05-06 22:54 | -34.55287 | 125.25663 | 34632 ft | 467 kts | 284° |
| 2026-05-06 22:55 | -34.53491 | 125.18108 | 34624 ft | 466 kts | 284° |
| 2026-05-06 22:55 | -34.51690 | 125.10562 | 34626 ft | 466 kts | 284° |
| 2026-05-06 22:56 | -34.49882 | 125.03016 | 34627 ft | 465 kts | 284° |
| 2026-05-06 22:56 | -34.48071 | 124.95465 | 34620 ft | 466 kts | 284° |
| 2026-05-06 22:57 | -34.46255 | 124.87928 | 34622 ft | 466 kts | 284° |
| 2026-05-06 22:57 | -34.44451 | 124.80440 | 34625 ft | 465 kts | 285° |
| 2026-05-06 22:58 | -34.42627 | 124.72913 | 34614 ft | 465 kts | 285° |
| 2026-05-06 22:58 | -34.40797 | 124.65398 | 34625 ft | 465 kts | 285° |
| 2026-05-06 22:59 | -34.38963 | 124.57878 | 34620 ft | 465 kts | 285° |
| 2026-05-06 22:59 | -34.37123 | 124.50373 | 34623 ft | 465 kts | 285° |
| 2026-05-06 23:00 | -34.35289 | 124.42867 | 34617 ft | 464 kts | 285° |
| 2026-05-06 23:00 | -34.33449 | 124.35372 | 34625 ft | 464 kts | 285° |
| 2026-05-06 23:01 | -34.31914 | 124.29143 | 34639 ft | 464 kts | 285° |
| 2026-05-06 23:01 | -34.30061 | 124.21653 | 34622 ft | 464 kts | 285° |
| 2026-05-06 23:02 | -34.28205 | 124.14168 | 34614 ft | 464 kts | 285° |
| 2026-05-06 23:02 | -34.26347 | 124.06698 | 34634 ft | 464 kts | 285° |
| 2026-05-06 23:03 | -34.24482 | 123.99245 | 34615 ft | 463 kts | 285° |
| 2026-05-06 23:03 | -34.22618 | 123.91799 | 34619 ft | 463 kts | 285° |
| 2026-05-06 23:04 | -34.20755 | 123.84357 | 34619 ft | 462 kts | 285° |
| 2026-05-06 23:04 | -34.18898 | 123.76969 | 34622 ft | 462 kts | 285° |
| 2026-05-06 23:05 | -34.17029 | 123.69545 | 34616 ft | 462 kts | 285° |
| 2026-05-06 23:05 | -34.15152 | 123.62111 | 34623 ft | 462 kts | 285° |
| 2026-05-06 23:06 | -34.13263 | 123.54690 | 34612 ft | 462 kts | 285° |
| 2026-05-06 23:06 | -34.11377 | 123.47276 | 34615 ft | 462 kts | 285° |
| 2026-05-06 23:07 | -34.09493 | 123.39871 | 34627 ft | 461 kts | 285° |
| 2026-05-06 23:07 | -34.07600 | 123.32474 | 34613 ft | 461 kts | 285° |
| 2026-05-06 23:08 | -34.05706 | 123.25084 | 34613 ft | 461 kts | 285° |
| 2026-05-06 23:08 | -34.03814 | 123.17740 | 34611 ft | 461 kts | 285° |
| 2026-05-06 23:09 | -34.01912 | 123.10354 | 34616 ft | 461 kts | 285° |
| 2026-05-06 23:09 | -34.00002 | 123.02969 | 34602 ft | 461 kts | 286° |
| 2026-05-06 23:10 | -33.98085 | 122.95570 | 34608 ft | 462 kts | 286° |
| 2026-05-06 23:10 | -33.96172 | 122.88237 | 34606 ft | 462 kts | 286° |
| 2026-05-06 23:11 | -33.94244 | 122.80850 | 34611 ft | 461 kts | 286° |
| 2026-05-06 23:11 | -33.92320 | 122.73472 | 34627 ft | 461 kts | 286° |
| 2026-05-06 23:12 | -33.90385 | 122.66103 | 34619 ft | 461 kts | 286° |
| 2026-05-06 23:12 | -33.88446 | 122.58734 | 34616 ft | 461 kts | 286° |
| 2026-05-06 23:13 | -33.86514 | 122.51431 | 34614 ft | 461 kts | 286° |
| 2026-05-06 23:13 | -33.84574 | 122.44077 | 34624 ft | 461 kts | 286° |
| 2026-05-06 23:14 | -33.82637 | 122.36734 | 34621 ft | 460 kts | 286° |
| 2026-05-06 23:14 | -33.80686 | 122.29396 | 34623 ft | 460 kts | 287° |
| 2026-05-06 23:15 | -33.78735 | 122.22074 | 34616 ft | 459 kts | 287° |
| 2026-05-06 23:15 | -33.76778 | 122.14764 | 34616 ft | 459 kts | 287° |
| 2026-05-06 23:16 | -33.74820 | 122.07467 | 34616 ft | 459 kts | 287° |
| 2026-05-06 23:16 | -33.72858 | 122.00179 | 34611 ft | 458 kts | 287° |
| 2026-05-06 23:17 | -33.70912 | 121.92936 | 34618 ft | 458 kts | 287° |
| 2026-05-06 23:17 | -33.68951 | 121.85661 | 34611 ft | 458 kts | 287° |
| 2026-05-06 23:18 | -33.66944 | 121.78409 | 34609 ft | 458 kts | 288° |
| 2026-05-06 23:18 | -33.64803 | 121.71199 | 34616 ft | 458 kts | 289° |
| 2026-05-06 23:19 | -33.62628 | 121.64012 | 34614 ft | 458 kts | 289° |
| 2026-05-06 23:19 | -33.60473 | 121.56805 | 34620 ft | 458 kts | 289° |
| 2026-05-06 23:20 | -33.58336 | 121.49594 | 34617 ft | 458 kts | 288° |
| 2026-05-06 23:20 | -33.56212 | 121.42434 | 34618 ft | 458 kts | 289° |
| 2026-05-06 23:21 | -33.54055 | 121.35228 | 34623 ft | 458 kts | 289° |
| 2026-05-06 23:21 | -33.51897 | 121.28039 | 34620 ft | 458 kts | 289° |
| 2026-05-06 23:22 | -33.49740 | 121.20857 | 34609 ft | 458 kts | 289° |
| 2026-05-06 23:22 | -33.47583 | 121.13720 | 34624 ft | 458 kts | 289° |
| 2026-05-06 23:23 | -33.45417 | 121.06545 | 34624 ft | 458 kts | 289° |
| 2026-05-06 23:23 | -33.43260 | 120.99374 | 34617 ft | 457 kts | 289° |
| 2026-05-06 23:24 | -33.41080 | 120.92202 | 34612 ft | 457 kts | 289° |
| 2026-05-06 23:24 | -33.38912 | 120.85087 | 34612 ft | 457 kts | 289° |
| 2026-05-06 23:25 | -33.36734 | 120.77938 | 34622 ft | 457 kts | 289° |
| 2026-05-06 23:25 | -33.34549 | 120.70788 | 34624 ft | 457 kts | 289° |
| 2026-05-06 23:26 | -33.32367 | 120.63680 | 34621 ft | 457 kts | 289° |
| 2026-05-06 23:26 | -33.30167 | 120.56518 | 34622 ft | 457 kts | 289° |
| 2026-05-06 23:27 | -33.27972 | 120.49388 | 34620 ft | 457 kts | 289° |
| 2026-05-06 23:27 | -33.25782 | 120.42272 | 34620 ft | 456 kts | 289° |
| 2026-05-06 23:28 | -33.23596 | 120.35197 | 34617 ft | 457 kts | 289° |
| 2026-05-06 23:28 | -33.21390 | 120.28082 | 34620 ft | 457 kts | 289° |
| 2026-05-06 23:29 | -33.19177 | 120.20973 | 34622 ft | 457 kts | 289° |
| 2026-05-06 23:29 | -33.16958 | 120.13867 | 34623 ft | 457 kts | 289° |
| 2026-05-06 23:30 | -33.14738 | 120.06754 | 34622 ft | 457 kts | 289° |
| 2026-05-06 23:30 | -33.12537 | 119.99689 | 34623 ft | 456 kts | 289° |
| 2026-05-06 23:31 | -33.10317 | 119.92597 | 34620 ft | 456 kts | 290° |
| 2026-05-06 23:31 | -33.08077 | 119.85513 | 34620 ft | 456 kts | 290° |
| 2026-05-06 23:32 | -33.05842 | 119.78433 | 34617 ft | 456 kts | 290° |
| 2026-05-06 23:32 | -33.03616 | 119.71346 | 34614 ft | 455 kts | 290° |
| 2026-05-06 23:33 | -33.01401 | 119.64329 | 34612 ft | 455 kts | 290° |
| 2026-05-06 23:33 | -32.99158 | 119.57281 | 34603 ft | 455 kts | 290° |
| 2026-05-06 23:34 | -32.96911 | 119.50219 | 34603 ft | 454 kts | 290° |
| 2026-05-06 23:34 | -32.94683 | 119.43230 | 34604 ft | 454 kts | 290° |
| 2026-05-06 23:35 | -32.92439 | 119.36192 | 34602 ft | 455 kts | 290° |
| 2026-05-06 23:35 | -32.90179 | 119.29153 | 34604 ft | 455 kts | 290° |
| 2026-05-06 23:36 | -32.87922 | 119.22117 | 34597 ft | 455 kts | 290° |
| 2026-05-06 23:36 | -32.85659 | 119.15082 | 34596 ft | 455 kts | 290° |
| 2026-05-06 23:37 | -32.83394 | 119.08056 | 34597 ft | 455 kts | 290° |
| 2026-05-06 23:37 | -32.81124 | 119.01034 | 34602 ft | 455 kts | 290° |
| 2026-05-06 23:38 | -32.78870 | 118.94057 | 34599 ft | 455 kts | 290° |
| 2026-05-06 23:38 | -32.76593 | 118.87031 | 34595 ft | 455 kts | 290° |
| 2026-05-06 23:39 | -32.74315 | 118.80005 | 34595 ft | 455 kts | 290° |
| 2026-05-06 23:39 | -32.72027 | 118.72992 | 34592 ft | 455 kts | 290° |
| 2026-05-06 23:40 | -32.69734 | 118.65984 | 34583 ft | 455 kts | 290° |
| 2026-05-06 23:40 | -32.67440 | 118.58972 | 34593 ft | 455 kts | 290° |
| 2026-05-06 23:41 | -32.65152 | 118.52006 | 34600 ft | 455 kts | 290° |
| 2026-05-06 23:41 | -32.62848 | 118.45012 | 34466 ft | 452 kts | 290° |
| 2026-05-06 23:41 | -32.61713 | 118.41567 | 34183 ft | 445 kts | 290° |
| 2026-05-06 23:42 | -32.60594 | 118.38166 | 33915 ft | 441 kts | 290° |
| 2026-05-06 23:42 | -32.59479 | 118.34781 | 33639 ft | 439 kts | 290° |
| 2026-05-06 23:42 | -32.58368 | 118.31415 | 33374 ft | 437 kts | 291° |
| 2026-05-06 23:42 | -32.57259 | 118.28069 | 33107 ft | 435 kts | 291° |
| 2026-05-06 23:43 | -32.56151 | 118.24735 | 32848 ft | 434 kts | 291° |
| 2026-05-06 23:43 | -32.55058 | 118.21452 | 32592 ft | 433 kts | 291° |
| 2026-05-06 23:43 | -32.53957 | 118.18142 | 32334 ft | 431 kts | 291° |
| 2026-05-06 23:43 | -32.52859 | 118.14837 | 32082 ft | 430 kts | 291° |
| 2026-05-06 23:44 | -32.51769 | 118.11538 | 31831 ft | 429 kts | 291° |
| 2026-05-06 23:44 | -32.50676 | 118.08238 | 31576 ft | 426 kts | 291° |
| 2026-05-06 23:44 | -32.49595 | 118.04981 | 31134 ft | 423 kts | 291° |
| 2026-05-06 23:44 | -32.48532 | 118.01787 | 30677 ft | 421 kts | 291° |
| 2026-05-06 23:45 | -32.47458 | 117.98567 | 30166 ft | 419 kts | 291° |
| 2026-05-06 23:45 | -32.46391 | 117.95377 | 29723 ft | 415 kts | 291° |
| 2026-05-06 23:45 | -32.45327 | 117.92207 | 29272 ft | 412 kts | 292° |
| 2026-05-06 23:45 | -32.44268 | 117.89061 | 28840 ft | 409 kts | 292° |
| 2026-05-06 23:46 | -32.43216 | 117.85946 | 28413 ft | 407 kts | 292° |
| 2026-05-06 23:46 | -32.42168 | 117.82840 | 27992 ft | 405 kts | 292° |
| 2026-05-06 23:46 | -32.41134 | 117.79752 | 27579 ft | 402 kts | 292° |
| 2026-05-06 23:46 | -32.40115 | 117.76702 | 27169 ft | 400 kts | 292° |
| 2026-05-06 23:47 | -32.39089 | 117.73638 | 26762 ft | 398 kts | 292° |
| 2026-05-06 23:47 | -32.38066 | 117.70602 | 26359 ft | 396 kts | 292° |
| 2026-05-06 23:47 | -32.37048 | 117.67588 | 25954 ft | 394 kts | 292° |
| 2026-05-06 23:47 | -32.36397 | 117.65590 | 25684 ft | 392 kts | 289° |
| 2026-05-06 23:48 | -32.35636 | 117.62501 | 25283 ft | 390 kts | 286° |
| 2026-05-06 23:48 | -32.34904 | 117.59419 | 24867 ft | 389 kts | 286° |
| 2026-05-06 23:48 | -32.34169 | 117.56343 | 24451 ft | 387 kts | 286° |
| 2026-05-06 23:48 | -32.33435 | 117.53284 | 24011 ft | 386 kts | 287° |
| 2026-05-06 23:49 | -32.32704 | 117.50234 | 23556 ft | 383 kts | 287° |
| 2026-05-06 23:49 | -32.31979 | 117.47215 | 23138 ft | 380 kts | 287° |
| 2026-05-06 23:49 | -32.31257 | 117.44220 | 22716 ft | 377 kts | 287° |
| 2026-05-06 23:49 | -32.30540 | 117.41249 | 22287 ft | 374 kts | 287° |
| 2026-05-06 23:50 | -32.29836 | 117.38334 | 21857 ft | 372 kts | 287° |
| 2026-05-06 23:50 | -32.28425 | 117.32495 | 21028 ft | 367 kts | 287° |
| 2026-05-06 23:50 | -32.27724 | 117.29602 | 20614 ft | 365 kts | 287° |
| 2026-05-06 23:51 | -32.27022 | 117.26718 | 20196 ft | 363 kts | 287° |
| 2026-05-06 23:51 | -32.26323 | 117.23849 | 19777 ft | 361 kts | 287° |
| 2026-05-06 23:51 | -32.25629 | 117.20998 | 19371 ft | 360 kts | 287° |
| 2026-05-06 23:51 | -32.24940 | 117.18159 | 18960 ft | 358 kts | 287° |
| 2026-05-06 23:52 | -32.24264 | 117.15366 | 18515 ft | 357 kts | 287° |
| 2026-05-06 23:52 | -32.23580 | 117.12555 | 18094 ft | 354 kts | 287° |
| 2026-05-06 23:52 | -32.22899 | 117.09768 | 17691 ft | 351 kts | 287° |
| 2026-05-06 23:52 | -32.22226 | 117.07010 | 17282 ft | 348 kts | 287° |
| 2026-05-06 23:53 | -32.21558 | 117.04267 | 16895 ft | 346 kts | 287° |
| 2026-05-06 23:53 | -32.20893 | 117.01549 | 16494 ft | 344 kts | 287° |
| 2026-05-06 23:53 | -32.20230 | 116.98846 | 16104 ft | 341 kts | 287° |
| 2026-05-06 23:53 | -32.19567 | 116.96159 | 15710 ft | 339 kts | 287° |
| 2026-05-06 23:54 | -32.18909 | 116.93491 | 15315 ft | 337 kts | 287° |
| 2026-05-06 23:54 | -32.18257 | 116.90833 | 14924 ft | 336 kts | 286° |
| 2026-05-06 23:54 | -32.17805 | 116.88138 | 14540 ft | 334 kts | 278° |
| 2026-05-06 23:54 | -32.17464 | 116.85464 | 14138 ft | 333 kts | 278° |
| 2026-05-06 23:55 | -32.17121 | 116.82776 | 13748 ft | 330 kts | 278° |
| 2026-05-06 23:55 | -32.16781 | 116.80112 | 13371 ft | 327 kts | 278° |
| 2026-05-06 23:55 | -32.16440 | 116.77471 | 12996 ft | 324 kts | 278° |
| 2026-05-06 23:55 | -32.16099 | 116.74845 | 12624 ft | 322 kts | 278° |
| 2026-05-06 23:56 | -32.15763 | 116.72250 | 12252 ft | 319 kts | 278° |
| 2026-05-06 23:56 | -32.15427 | 116.69664 | 11885 ft | 317 kts | 278° |
| 2026-05-06 23:56 | -32.15091 | 116.67107 | 11582 ft | 312 kts | 278° |
| 2026-05-06 23:56 | -32.14762 | 116.64593 | 11230 ft | 309 kts | 278° |
| 2026-05-06 23:57 | -32.14439 | 116.62123 | 10775 ft | 300 kts | 278° |
| 2026-05-06 23:57 | -32.14117 | 116.59661 | 10037 ft | 306 kts | 278° |
| 2026-05-06 23:57 | -32.13793 | 116.57206 | 9592 ft | 299 kts | 279° |
| 2026-05-06 23:57 | -32.13472 | 116.54801 | 9241 ft | 295 kts | 279° |
| 2026-05-06 23:58 | -32.13153 | 116.52412 | 8895 ft | 293 kts | 279° |
| 2026-05-06 23:58 | -32.12842 | 116.50068 | 8553 ft | 292 kts | 279° |
| 2026-05-06 23:58 | -32.12528 | 116.47712 | 8214 ft | 291 kts | 279° |
| 2026-05-06 23:58 | -32.12213 | 116.45363 | 7865 ft | 289 kts | 279° |
| 2026-05-06 23:59 | -32.11899 | 116.43021 | 7524 ft | 288 kts | 279° |
| 2026-05-06 23:59 | -32.11588 | 116.40688 | 7188 ft | 287 kts | 279° |
| 2026-05-06 23:59 | -32.11276 | 116.38366 | 6839 ft | 286 kts | 280° |
| 2026-05-06 23:59 | -32.10966 | 116.36054 | 6485 ft | 285 kts | 280° |
| 2026-05-07 00:00 | -32.10656 | 116.33752 | 6148 ft | 283 kts | 281° |
| 2026-05-07 00:00 | -32.10347 | 116.31468 | 5878 ft | 279 kts | 281° |
| 2026-05-07 00:00 | -32.10050 | 116.29265 | 5727 ft | 265 kts | 281° |
| 2026-05-07 00:00 | -32.09771 | 116.27183 | 5561 ft | 248 kts | 281° |
| 2026-05-07 00:01 | -32.09514 | 116.25252 | 5400 ft | 229 kts | 282° |
| 2026-05-07 00:01 | -32.09261 | 116.23408 | 5025 ft | 229 kts | 283° |
| 2026-05-07 00:01 | -32.08957 | 116.21563 | 4651 ft | 229 kts | 285° |
| 2026-05-07 00:01 | -32.08637 | 116.19752 | 4430 ft | 221 kts | 285° |
| 2026-05-07 00:02 | -32.08333 | 116.18051 | 4374 ft | 210 kts | 286° |
| 2026-05-07 00:02 | -32.08034 | 116.16374 | 4323 ft | 208 kts | 286° |
| 2026-05-07 00:02 | -32.07737 | 116.14704 | 4252 ft | 208 kts | 287° |
| 2026-05-07 00:02 | -32.07441 | 116.13034 | 4158 ft | 208 kts | 286° |
| 2026-05-07 00:03 | -32.07149 | 116.11371 | 4057 ft | 207 kts | 286° |
| 2026-05-07 00:03 | -32.06866 | 116.09736 | 4000 ft | 201 kts | 286° |
| 2026-05-07 00:03 | -32.06574 | 116.08138 | 3725 ft | 199 kts | 287° |
| 2026-05-07 00:03 | -32.06281 | 116.06585 | 3441 ft | 189 kts | 288° |
| 2026-05-07 00:04 | -32.06002 | 116.05108 | 3171 ft | 181 kts | 289° |
| 2026-05-07 00:04 | -32.05735 | 116.03688 | 2927 ft | 175 kts | 290° |
| 2026-05-07 00:04 | -32.05471 | 116.02289 | 2708 ft | 174 kts | 290° |
| 2026-05-07 00:04 | -32.05212 | 116.00918 | 2493 ft | 173 kts | 290° |
| 2026-05-07 00:05 | -32.04950 | 115.99536 | 2287 ft | 172 kts | 290° |
| 2026-05-07 00:05 | -32.04662 | 115.98186 | 2144 ft | 166 kts | 297° |
| 2026-05-07 00:05 | -32.04144 | 115.97013 | 1871 ft | 157 kts | 316° |
| 2026-05-07 00:05 | -32.03390 | 115.96139 | 1624 ft | 149 kts | 331° |
| 2026-05-07 00:06 | -32.02528 | 115.95485 | 1439 ft | 146 kts | 339° |
| 2026-05-07 00:06 | -32.01593 | 115.95009 | 1253 ft | 145 kts | 349° |
| 2026-05-07 00:06 | -32.00627 | 115.94798 | 1105 ft | 138 kts | 4° |
| 2026-05-07 00:06 | -31.99679 | 115.94819 | 838 ft | 136 kts | 13° |
| 2026-05-07 00:07 | -31.98753 | 115.95038 | 691 ft | 137 kts | 21° |
| 2026-05-07 00:07 | -31.97833 | 115.95360 | 481 ft | 140 kts | 20° |
| 2026-05-07 00:07 | -31.96884 | 115.95670 | 308 ft | 140 kts | 19° |
| 2026-05-07 00:07 | -31.95941 | 115.95941 | 126 ft | 138 kts | 18° |
| 2026-05-07 00:08 | -31.95041 | 115.96208 | 64 ft | 121 kts | 17° |
| 2026-05-07 00:08 | -31.94372 | 115.96410 | 69 ft | 76 kts | 14° |
| 2026-05-07 00:08 | -31.93977 | 115.96524 | 64 ft | 49 kts | 14° |
| 2026-05-07 00:08 | -31.93736 | 115.96590 | 65 ft | 31 kts | 14° |
| 2026-05-07 00:09 | -31.93536 | 115.96653 | 63 ft | 24 kts | 20° |
| 2026-05-07 00:09 | -31.93444 | 115.96780 | 64 ft | 20 kts | 59° |
| 2026-05-07 00:09 | -31.93381 | 115.96902 | 60 ft | 15 kts | 59° |
| 2026-05-07 00:09 | -31.93353 | 115.96993 | 64 ft | 10 kts | 107° |
| 2026-05-07 00:10 | -31.93411 | 115.97036 | 61 ft | 11 kts | 186° |
| 2026-05-07 00:10 | -31.93487 | 115.97015 | 66 ft | 12 kts | 193° |
| 2026-05-07 00:10 | -31.93572 | 115.96991 | 61 ft | 13 kts | 194° |
| 2026-05-07 00:10 | -31.93666 | 115.96964 | 61 ft | 14 kts | 194° |
| 2026-05-07 00:11 | -31.93763 | 115.96935 | 68 ft | 13 kts | 194° |
| 2026-05-07 00:11 | -31.93853 | 115.96908 | 65 ft | 14 kts | 194° |
| 2026-05-07 00:11 | -31.93954 | 115.96878 | 60 ft | 15 kts | 194° |
| 2026-05-07 00:11 | -31.94049 | 115.96851 | 64 ft | 12 kts | 193° |
| 2026-05-07 00:12 | -31.94130 | 115.96829 | 62 ft | 13 kts | 193° |
| 2026-05-07 00:12 | -31.94203 | 115.96808 | 66 ft | 11 kts | 194° |
| 2026-05-07 00:12 | -31.94281 | 115.96782 | 63 ft | 12 kts | 197° |
| 2026-05-07 00:12 | -31.94340 | 115.96806 | 61 ft | 9 kts | 109° |
| 2026-05-07 00:13 | -31.94357 | 115.96881 | 65 ft | 9 kts | 104° |
| 2026-05-07 00:13 | -31.94368 | 115.96936 | 62 ft | 4 kts | 103° |
| 2026-05-07 00:13 | -31.94375 | 115.96966 | 68 ft | 4 kts | 104° |
| 2026-05-07 00:13 | -31.94390 | 115.96999 | 63 ft | 4 kts | 130° |
| 2026-05-07 00:14 | -31.94408 | 115.97029 | 62 ft | 5 kts | 121° |
| 2026-05-07 00:14 | -31.94418 | 115.97053 | 58 ft | 2 kts | 115° |
| 2026-05-07 00:14 | -31.94419 | 115.97056 | 58 ft | 0 kts | 115° |